Time,TemperatureF,DewpointF,PressureIn,WindDirection,WindDirectionDegrees,WindSpeedMPH,WindSpeedGustMPH,Humidity,HourlyPrecipIn,Conditions,Clouds,dailyrainin,SoftwareType,DateUTC
2013-03-21 00:00:00,13.4,6.7,30.23,NNW,336,2.0,3.0,74,0.00,,,0.00,Wunderground v.1.15,2013-03-21 05:00:00,
2013-03-21 00:05:00,13.3,6.6,30.23,NNW,335,3.0,3.0,74,0.00,,,0.00,Wunderground v.1.15,2013-03-21 05:05:00,
2013-03-21 00:15:00,13.2,6.5,30.23,NNW,336,3.0,7.0,74,0.00,,,0.00,Wunderground v.1.15,2013-03-21 05:15:00,
2013-03-21 00:20:00,13.2,6.5,30.23,NNW,330,3.0,3.0,74,0.00,,,0.00,Wunderground v.1.15,2013-03-21 05:20:00,
2013-03-21 00:25:00,13.1,6.4,30.23,NNW,337,3.0,5.0,74,0.00,,,0.00,Wunderground v.1.15,2013-03-21 05:25:00,
2013-03-21 00:35:00,12.8,6.4,30.23,NNW,334,2.0,3.0,75,0.00,,,0.00,Wunderground v.1.15,2013-03-21 05:35:00,
2013-03-21 00:40:00,12.6,6.2,30.24,NNW,334,2.0,2.0,75,0.00,,,0.00,Wunderground v.1.15,2013-03-21 05:40:00,
2013-03-21 00:45:00,12.5,6.1,30.23,NNW,334,1.0,2.0,75,0.00,,,0.00,Wunderground v.1.15,2013-03-21 05:45:00,
2013-03-21 00:55:00,12.2,6.1,30.23,NNW,336,1.0,1.0,76,0.00,,,0.00,Wunderground v.1.15,2013-03-21 05:55:00,
2013-03-21 01:00:00,12.1,6.0,30.23,NNW,336,1.0,2.0,76,0.00,,,0.00,Wunderground v.1.15,2013-03-21 06:00:00,
2013-03-21 01:05:00,11.9,5.8,30.23,NNW,336,1.0,2.0,76,0.00,,,0.00,Wunderground v.1.15,2013-03-21 06:05:00,
2013-03-21 01:15:00,11.7,5.9,30.23,NNW,336,1.0,1.0,77,0.00,,,0.00,Wunderground v.1.15,2013-03-21 06:15:00,
2013-03-21 01:20:00,11.7,5.9,30.23,NNW,336,1.0,1.0,77,0.00,,,0.00,Wunderground v.1.15,2013-03-21 06:20:00,
2013-03-21 01:25:00,11.6,5.8,30.23,NNW,335,1.0,1.0,77,0.00,,,0.00,Wunderground v.1.15,2013-03-21 06:25:00,
2013-03-21 01:30:00,11.5,5.7,30.23,NNW,336,1.0,2.0,77,0.00,,,0.00,Wunderground v.1.15,2013-03-21 06:30:00,
2013-03-21 01:40:00,11.2,5.7,30.23,NNW,336,0.0,0.0,78,0.00,,,0.00,Wunderground v.1.15,2013-03-21 06:40:00,
2013-03-21 01:45:00,11.0,5.5,30.23,NNW,336,0.0,0.0,78,0.00,,,0.00,Wunderground v.1.15,2013-03-21 06:45:00,
2013-03-21 01:50:00,10.9,5.4,30.23,NNW,336,0.0,0.0,78,0.00,,,0.00,Wunderground v.1.15,2013-03-21 06:50:00,
2013-03-21 02:00:00,10.7,5.2,30.22,NNW,336,0.0,1.0,78,0.00,,,0.00,Wunderground v.1.15,2013-03-21 07:00:00,
2013-03-21 02:05:00,10.7,5.5,30.22,NNW,336,1.0,1.0,79,0.00,,,0.00,Wunderground v.1.15,2013-03-21 07:05:00,
2013-03-21 02:15:00,10.4,5.2,30.22,NNW,336,0.0,1.0,79,0.00,,,0.00,Wunderground v.1.15,2013-03-21 07:15:00,
2013-03-21 02:20:00,10.3,5.1,30.23,NNW,336,0.0,1.0,79,0.00,,,0.00,Wunderground v.1.15,2013-03-21 07:20:00,
2013-03-21 02:25:00,10.3,5.1,30.22,NNW,335,0.0,1.0,79,0.00,,,0.00,Wunderground v.1.15,2013-03-21 07:25:00,
2013-03-21 02:35:00,10.0,4.8,30.22,NNW,336,0.0,0.0,79,0.00,,,0.00,Wunderground v.1.15,2013-03-21 07:35:00,
2013-03-21 02:40:00,9.9,4.7,30.22,NNW,336,0.0,0.0,79,0.00,,,0.00,Wunderground v.1.15,2013-03-21 07:40:00,
2013-03-21 02:45:00,9.9,5.0,30.22,NNW,336,0.0,0.0,80,0.00,,,0.00,Wunderground v.1.15,2013-03-21 07:45:00,
2013-03-21 02:50:00,9.8,4.9,30.22,NNW,336,0.0,0.0,80,0.00,,,0.00,Wunderground v.1.15,2013-03-21 07:50:00,
2013-03-21 03:00:00,9.6,4.7,30.22,NNW,336,0.0,0.0,80,0.00,,,0.00,Wunderground v.1.15,2013-03-21 08:00:00,
2013-03-21 03:05:00,9.6,4.7,30.22,NNW,336,0.0,0.0,80,0.00,,,0.00,Wunderground v.1.15,2013-03-21 08:05:00,
2013-03-21 03:15:00,9.6,4.9,30.22,NNW,336,0.0,1.0,81,0.00,,,0.00,Wunderground v.1.15,2013-03-21 08:15:00,
2013-03-21 03:20:00,9.5,4.6,30.22,NNW,336,0.0,0.0,80,0.00,,,0.00,Wunderground v.1.15,2013-03-21 08:20:00,
2013-03-21 03:25:00,9.5,4.6,30.22,NNW,336,0.0,0.0,80,0.00,,,0.00,Wunderground v.1.15,2013-03-21 08:25:00,
2013-03-21 03:30:00,9.3,4.4,30.22,NNW,336,0.0,0.0,80,0.00,,,0.00,Wunderground v.1.15,2013-03-21 08:30:00,
2013-03-21 03:40:00,9.3,4.4,30.21,NNW,336,1.0,1.0,80,0.00,,,0.00,Wunderground v.1.15,2013-03-21 08:40:00,
2013-03-21 03:45:00,9.3,4.6,30.21,NNW,336,0.0,1.0,81,0.00,,,0.00,Wunderground v.1.15,2013-03-21 08:45:00,
2013-03-21 03:50:00,9.3,4.4,30.22,NNW,336,0.0,0.0,80,0.00,,,0.00,Wunderground v.1.15,2013-03-21 08:50:00,
2013-03-21 03:55:00,9.2,4.3,30.22,NNW,336,0.0,0.0,80,0.00,,,0.00,Wunderground v.1.15,2013-03-21 08:55:00,
2013-03-21 04:05:00,9.0,4.1,30.21,NNW,336,0.0,0.0,80,0.00,,,0.00,Wunderground v.1.15,2013-03-21 09:05:00,
2013-03-21 04:15:00,8.8,4.2,30.22,NNW,336,0.0,0.0,81,0.00,,,0.00,Wunderground v.1.15,2013-03-21 09:15:00,
2013-03-21 04:20:00,8.7,4.1,30.22,NNW,336,0.0,0.0,81,0.00,,,0.00,Wunderground v.1.15,2013-03-21 09:20:00,
2013-03-21 04:25:00,8.7,4.1,30.22,NNW,336,0.0,0.0,81,0.00,,,0.00,Wunderground v.1.15,2013-03-21 09:25:00,
2013-03-21 04:30:00,8.8,4.2,30.22,NNW,336,0.0,0.0,81,0.00,,,0.00,Wunderground v.1.15,2013-03-21 09:30:00,
2013-03-21 04:35:00,8.7,4.1,30.22,NNW,336,0.0,0.0,81,0.00,,,0.00,Wunderground v.1.15,2013-03-21 09:35:00,
2013-03-21 04:45:00,8.3,3.7,30.22,NNW,336,0.0,0.0,81,0.00,,,0.00,Wunderground v.1.15,2013-03-21 09:45:00,
2013-03-21 04:50:00,8.2,3.6,30.22,NNW,336,0.0,0.0,81,0.00,,,0.00,Wunderground v.1.15,2013-03-21 09:50:00,
2013-03-21 04:55:00,8.2,3.8,30.22,NNW,336,0.0,0.0,82,0.00,,,0.00,Wunderground v.1.15,2013-03-21 09:55:00,
2013-03-21 05:00:00,8.0,3.6,30.22,NNW,336,0.0,0.0,82,0.00,,,0.00,Wunderground v.1.15,2013-03-21 10:00:00,
2013-03-21 05:05:00,7.9,3.5,30.21,NNW,336,0.0,0.0,82,0.00,,,0.00,Wunderground v.1.15,2013-03-21 10:05:00,
2013-03-21 05:15:00,7.6,3.3,30.22,NNW,336,0.0,0.0,82,0.00,,,0.00,Wunderground v.1.15,2013-03-21 10:15:00,
2013-03-21 05:25:00,7.2,3.1,30.21,NNW,336,0.0,0.0,83,0.00,,,0.00,Wunderground v.1.15,2013-03-21 10:25:00,
2013-03-21 05:30:00,7.1,3.0,30.22,NNW,336,0.0,0.0,83,0.00,,,0.00,Wunderground v.1.15,2013-03-21 10:30:00,
2013-03-21 05:35:00,7.0,2.9,30.21,NNW,336,0.0,0.0,83,0.00,,,0.00,Wunderground v.1.15,2013-03-21 10:35:00,
2013-03-21 05:40:00,6.9,2.8,30.22,NNW,336,0.0,0.0,83,0.00,,,0.00,Wunderground v.1.15,2013-03-21 10:40:00,
2013-03-21 05:45:00,6.8,2.7,30.22,NNW,336,0.0,0.0,83,0.00,,,0.00,Wunderground v.1.15,2013-03-21 10:45:00,
2013-03-21 05:55:00,6.7,2.9,30.22,NNW,336,0.0,0.0,84,0.00,,,0.00,Wunderground v.1.15,2013-03-21 10:55:00,
2013-03-21 06:00:00,6.7,2.9,30.22,NNW,336,0.0,0.0,84,0.00,,,0.00,Wunderground v.1.15,2013-03-21 11:00:00,
2013-03-21 06:05:00,6.6,2.8,30.23,NNW,336,0.0,0.0,84,0.00,,,0.00,Wunderground v.1.15,2013-03-21 11:05:00,
2013-03-21 06:15:00,6.6,3.0,30.22,NNW,336,0.0,0.0,85,0.00,,,0.00,Wunderground v.1.15,2013-03-21 11:15:00,
2013-03-21 06:20:00,6.5,3.0,30.22,NNW,336,0.0,0.0,85,0.00,,,0.00,Wunderground v.1.15,2013-03-21 11:20:00,
2013-03-21 06:30:00,6.3,2.5,30.22,NNW,336,0.0,0.0,84,0.00,,,0.00,Wunderground v.1.15,2013-03-21 11:30:00,
2013-03-21 06:35:00,6.3,2.8,30.22,NNW,336,0.0,0.0,85,0.00,,,0.00,Wunderground v.1.15,2013-03-21 11:35:00,
2013-03-21 06:40:00,6.2,2.7,30.22,NNW,336,0.0,0.0,85,0.00,,,0.00,Wunderground v.1.15,2013-03-21 11:40:00,
2013-03-21 06:45:00,6.1,2.6,30.22,NNW,336,0.0,0.0,85,0.00,,,0.00,Wunderground v.1.15,2013-03-21 11:45:00,
2013-03-21 06:55:00,6.0,2.5,30.23,NNW,336,0.0,0.0,85,0.00,,,0.00,Wunderground v.1.15,2013-03-21 11:55:00,
2013-03-21 07:00:00,5.9,2.4,30.23,NNW,336,0.0,0.0,85,0.00,,,0.00,Wunderground v.1.15,2013-03-21 12:00:00,
2013-03-21 07:05:00,5.8,2.3,30.23,NNW,336,0.0,0.0,85,0.00,,,0.00,Wunderground v.1.15,2013-03-21 12:05:00,
2013-03-21 07:15:00,5.7,2.2,30.23,NNW,336,0.0,0.0,85,0.00,,,0.00,Wunderground v.1.15,2013-03-21 12:15:00,
2013-03-21 07:20:00,5.7,2.2,30.23,NNW,336,0.0,0.0,85,0.00,,,0.00,Wunderground v.1.15,2013-03-21 12:20:00,
2013-03-21 07:25:00,5.6,2.1,30.23,NNW,336,0.0,0.0,85,0.00,,,0.00,Wunderground v.1.15,2013-03-21 12:25:00,
2013-03-21 07:35:00,5.8,2.5,30.22,NNW,336,0.0,0.0,86,0.00,,,0.00,Wunderground v.1.15,2013-03-21 12:35:00,
2013-03-21 07:40:00,6.0,2.7,30.23,NNW,336,0.0,0.0,86,0.00,,,0.00,Wunderground v.1.15,2013-03-21 12:40:00,
2013-03-21 07:45:00,6.5,3.2,30.22,NNW,336,0.0,1.0,86,0.00,,,0.00,Wunderground v.1.15,2013-03-21 12:45:00,
2013-03-21 07:50:00,7.2,3.9,30.22,NNW,336,1.0,2.0,86,0.00,,,0.00,Wunderground v.1.15,2013-03-21 12:50:00,
2013-03-21 08:00:00,8.6,5.3,30.21,NNW,342,2.0,2.0,86,0.00,,,0.00,Wunderground v.1.15,2013-03-21 13:00:00,
2013-03-21 08:05:00,9.3,5.7,30.22,NNW,340,1.0,2.0,85,0.00,,,0.00,Wunderground v.1.15,2013-03-21 13:05:00,
2013-03-21 08:15:00,10.6,6.5,30.21,NNW,337,2.0,3.0,83,0.00,,,0.00,Wunderground v.1.15,2013-03-21 13:15:00,
2013-03-21 08:20:00,11.2,6.8,30.21,NNW,328,2.0,2.0,82,0.00,,,0.00,Wunderground v.1.15,2013-03-21 13:20:00,
2013-03-21 08:30:00,12.0,7.0,30.22,NNW,330,3.0,3.0,80,0.00,,,0.00,Wunderground v.1.15,2013-03-21 13:30:00,
2013-03-21 08:35:00,12.5,7.2,30.22,NNW,330,2.0,3.0,79,0.00,,,0.00,Wunderground v.1.15,2013-03-21 13:35:00,
2013-03-21 08:40:00,13.0,7.4,30.22,NNW,343,1.0,2.0,78,0.00,,,0.00,Wunderground v.1.15,2013-03-21 13:40:00,
2013-03-21 08:45:00,13.5,7.6,30.22,NNW,348,2.0,6.0,77,0.00,,,0.00,Wunderground v.1.15,2013-03-21 13:45:00,
2013-03-21 08:50:00,13.8,7.6,30.23,NNW,337,2.0,2.0,76,0.00,,,0.00,Wunderground v.1.15,2013-03-21 13:50:00,
2013-03-21 09:00:00,14.4,8.2,30.23,NNW,333,2.0,3.0,76,0.00,,,0.00,Wunderground v.1.15,2013-03-21 14:00:00,
2013-03-21 09:05:00,14.9,8.4,30.23,NNW,342,2.0,3.0,75,0.00,,,0.00,Wunderground v.1.15,2013-03-21 14:05:00,
2013-03-21 09:15:00,15.9,9.1,30.23,NW,325,2.0,3.0,74,0.00,,,0.00,Wunderground v.1.15,2013-03-21 14:15:00,
2013-03-21 09:20:00,16.2,8.8,30.23,NW,325,2.0,5.0,72,0.00,,,0.00,Wunderground v.1.15,2013-03-21 14:20:00,
2013-03-21 09:25:00,16.2,8.1,30.23,NNW,338,3.0,5.0,70,0.00,,,0.00,Wunderground v.1.15,2013-03-21 14:25:00,
2013-03-21 09:35:00,17.2,9.1,30.23,NNW,331,2.0,3.0,70,0.00,,,0.00,Wunderground v.1.15,2013-03-21 14:35:00,
2013-03-21 09:40:00,17.8,9.0,30.24,NNW,327,2.0,3.0,68,0.00,,,0.00,Wunderground v.1.15,2013-03-21 14:40:00,
2013-03-21 09:45:00,18.1,8.6,30.24,NNW,332,3.0,4.0,66,0.00,,,0.00,Wunderground v.1.15,2013-03-21 14:45:00,
2013-03-21 09:50:00,18.3,9.2,30.24,NNW,331,2.0,2.0,67,0.00,,,0.00,Wunderground v.1.15,2013-03-21 14:50:00,
2013-03-21 10:00:00,18.7,8.5,30.24,NNW,329,2.0,2.0,64,0.00,,,0.00,Wunderground v.1.15,2013-03-21 15:00:00,
2013-03-21 10:05:00,18.9,8.7,30.23,NW,313,3.0,3.0,64,0.00,,,0.00,Wunderground v.1.15,2013-03-21 15:05:00,
2013-03-21 10:15:00,19.7,9.5,30.23,NNW,330,2.0,4.0,64,0.00,,,0.00,Wunderground v.1.15,2013-03-21 15:15:00,
2013-03-21 10:20:00,19.9,9.3,30.23,NW,318,2.0,2.0,63,0.00,,,0.00,Wunderground v.1.15,2013-03-21 15:20:00,
2013-03-21 10:25:00,20.0,9.4,30.23,NNW,338,3.0,6.0,63,0.00,,,0.00,Wunderground v.1.15,2013-03-21 15:25:00,
2013-03-21 10:35:00,20.6,9.6,30.23,NNW,327,5.0,7.0,62,0.00,,,0.00,Wunderground v.1.15,2013-03-21 15:35:00,
2013-03-21 10:40:00,21.2,10.6,30.23,NNW,342,4.0,4.0,63,0.00,,,0.00,Wunderground v.1.15,2013-03-21 15:40:00,
2013-03-21 10:45:00,21.6,10.2,30.23,NW,325,2.0,4.0,61,0.00,,,0.00,Wunderground v.1.15,2013-03-21 15:45:00,
2013-03-21 10:50:00,22.3,10.9,30.23,NW,309,2.0,3.0,61,0.00,,,0.00,Wunderground v.1.15,2013-03-21 15:50:00,
2013-03-21 11:00:00,22.7,10.9,30.22,NNW,338,2.0,9.0,60,0.00,,,0.00,Wunderground v.1.15,2013-03-21 16:00:00,
2013-03-21 11:05:00,23.1,10.5,30.22,North,355,3.0,9.0,58,0.00,,,0.00,Wunderground v.1.15,2013-03-21 16:05:00,
2013-03-21 11:15:00,23.1,10.9,30.22,North,355,1.0,3.0,59,0.00,,,0.00,Wunderground v.1.15,2013-03-21 16:15:00,
2013-03-21 11:20:00,23.8,11.2,30.22,NNW,327,2.0,2.0,58,0.00,,,0.00,Wunderground v.1.15,2013-03-21 16:20:00,
2013-03-21 11:25:00,25.0,12.3,30.22,NW,325,2.0,2.0,58,0.00,,,0.00,Wunderground v.1.15,2013-03-21 16:25:00,
2013-03-21 11:35:00,25.2,10.9,30.22,NNW,329,3.0,3.0,54,0.00,,,0.00,Wunderground v.1.15,2013-03-21 16:35:00,
2013-03-21 11:40:00,26.1,12.5,30.22,WNW,302,3.0,3.0,56,0.00,,,0.00,Wunderground v.1.15,2013-03-21 16:40:00,
2013-03-21 11:45:00,26.7,11.4,30.22,SSW,211,2.0,3.0,52,0.00,,,0.00,Wunderground v.1.15,2013-03-21 16:45:00,
2013-03-21 11:50:00,27.2,12.3,30.22,NW,326,2.0,2.0,53,0.00,,,0.00,Wunderground v.1.15,2013-03-21 16:50:00,
2013-03-21 12:00:00,27.4,12.9,30.22,NW,323,2.0,2.0,54,0.00,,,0.00,Wunderground v.1.15,2013-03-21 17:00:00,
2013-03-21 12:05:00,28.0,12.6,30.21,West,261,1.0,5.0,52,0.00,,,0.00,Wunderground v.1.15,2013-03-21 17:05:00,
2013-03-21 12:15:00,28.7,13.3,30.21,WSW,252,1.0,1.0,52,0.00,,,0.00,Wunderground v.1.15,2013-03-21 17:15:00,
2013-03-21 12:20:00,28.8,12.9,30.21,WNW,284,1.0,1.0,51,0.00,,,0.00,Wunderground v.1.15,2013-03-21 17:20:00,
2013-03-21 12:25:00,28.1,11.4,30.21,NW,310,2.0,2.0,49,0.00,,,0.00,Wunderground v.1.15,2013-03-21 17:25:00,
2013-03-21 12:35:00,29.1,12.8,30.21,SW,230,1.0,1.0,50,0.00,,,0.00,Wunderground v.1.15,2013-03-21 17:35:00,
2013-03-21 12:40:00,30.2,13.8,30.21,NW,307,2.0,7.0,50,0.00,,,0.00,Wunderground v.1.15,2013-03-21 17:40:00,
2013-03-21 12:45:00,30.5,14.0,30.21,WSW,241,2.0,7.0,50,0.00,,,0.00,Wunderground v.1.15,2013-03-21 17:45:00,
2013-03-21 12:50:00,30.2,13.8,30.21,SSW,198,3.0,3.0,50,0.00,,,0.00,Wunderground v.1.15,2013-03-21 17:50:00,
2013-03-21 12:55:00,29.4,13.5,30.21,West,267,3.0,3.0,51,0.00,,,0.00,Wunderground v.1.15,2013-03-21 17:55:00,
2013-03-21 13:05:00,30.3,12.9,30.20,West,276,2.0,6.0,48,0.00,,,0.00,Wunderground v.1.15,2013-03-21 18:05:00,
2013-03-21 13:15:00,30.5,13.6,30.21,NW,315,2.0,4.0,49,0.00,,,0.00,Wunderground v.1.15,2013-03-21 18:15:00,
2013-03-21 13:25:00,31.7,14.7,30.20,SW,217,1.0,2.0,49,0.00,,,0.00,Wunderground v.1.15,2013-03-21 18:25:00,
2013-03-21 13:30:00,32.0,13.5,30.20,WNW,284,1.0,1.0,46,0.00,,,0.00,Wunderground v.1.15,2013-03-21 18:30:00,
2013-03-21 13:35:00,32.1,14.6,30.20,SW,218,1.0,3.0,48,0.00,,,0.01,Wunderground v.1.15,2013-03-21 18:35:00,
2013-03-21 13:40:00,31.9,13.4,30.20,West,275,1.0,4.0,46,0.00,,,0.01,Wunderground v.1.15,2013-03-21 18:40:00,
2013-03-21 13:50:00,32.6,14.6,30.19,West,259,2.0,4.0,47,0.00,,,0.01,Wunderground v.1.15,2013-03-21 18:50:00,
2013-03-21 13:55:00,32.6,15.1,30.19,WSW,241,2.0,4.0,48,0.00,,,0.01,Wunderground v.1.15,2013-03-21 18:55:00,
2013-03-21 14:00:00,32.7,13.2,30.19,WSW,242,2.0,4.0,44,0.00,,,0.01,Wunderground v.1.15,2013-03-21 19:00:00,
2013-03-21 14:05:00,32.3,12.8,30.19,West,264,2.0,4.0,44,0.00,,,0.01,Wunderground v.1.15,2013-03-21 19:05:00,
2013-03-21 14:15:00,33.0,13.4,30.19,West,275,2.0,3.0,44,0.00,,,0.01,Wunderground v.1.15,2013-03-21 19:15:00,
2013-03-21 14:20:00,32.9,12.8,30.19,WSW,245,2.0,3.0,43,0.00,,,0.01,Wunderground v.1.15,2013-03-21 19:20:00,
2013-03-21 14:30:00,33.2,14.1,30.18,NNW,340,2.0,3.0,45,0.00,,,0.01,Wunderground v.1.15,2013-03-21 19:30:00,
2013-03-21 14:35:00,33.2,13.6,30.18,West,277,2.0,3.0,44,0.00,,,0.01,Wunderground v.1.15,2013-03-21 19:35:00,
2013-03-21 14:40:00,33.8,15.2,30.18,NNW,330,2.0,2.0,46,0.00,,,0.01,Wunderground v.1.15,2013-03-21 19:40:00,
2013-03-21 14:50:00,32.3,12.8,30.18,NNW,344,1.0,1.0,44,0.00,,,0.01,Wunderground v.1.15,2013-03-21 19:50:00,
2013-03-21 14:55:00,32.6,14.1,30.18,West,281,2.0,4.0,46,0.00,,,0.01,Wunderground v.1.15,2013-03-21 19:55:00,
2013-03-21 15:00:00,33.4,13.3,30.18,West,275,2.0,2.0,43,0.00,,,0.01,Wunderground v.1.15,2013-03-21 20:00:00,
2013-03-21 15:05:00,34.1,14.9,30.17,NNW,338,1.0,2.0,45,0.00,,,0.01,Wunderground v.1.15,2013-03-21 20:05:00,
2013-03-21 15:15:00,33.9,14.3,30.17,West,279,2.0,2.0,44,0.00,,,0.01,Wunderground v.1.15,2013-03-21 20:15:00,